Time;durP1;ratioP1;P1;durP2;ratioP2;P2;SDS_P1;SDS_P2;PMS_P1;PMS_P2;Temp;Humidity;BMP_temperature;BMP_pressure;BME280_temperature;BME280_humidity;BME280_pressure;Samples;Min_cycle;Max_cycle;Signal;HPM_P1;HPM_P2
2022/05/07 00:02:03;;;;;;;3.53;1.90;;;;;;;13.65;63.74;102414.53;5058212;28;20086;-80
2022/05/07 00:04:29;;;;;;;3.38;1.92;;;;;;;13.66;64.31;102414.47;5060576;28;20051;-80
2022/05/07 00:06:54;;;;;;;6.95;2.58;;;;;;;13.63;63.98;102411.91;5060759;28;20059;-80
2022/05/07 00:09:19;;;;;;;3.50;2.55;;;;;;;13.62;64.06;102415.44;5059566;28;20123;-80
2022/05/07 00:11:48;;;;;;;2.63;1.80;;;;;;;13.62;64.67;102416.34;5078581;28;20209;-80
2022/05/07 00:14:13;;;;;;;5.35;2.05;;;;;;;13.63;64.61;102407.50;5044304;28;20036;-80
2022/05/07 00:19:23;;;;;;;5.93;2.45;;;;;;;13.61;64.86;102404.06;5078046;28;20043;-80
2022/05/07 00:21:48;;;;;;;3.60;2.22;;;;;;;13.61;65.16;102395.31;5034599;28;20116;-80
2022/05/07 00:24:14;;;;;;;3.22;2.17;;;;;;;13.62;65.10;102395.28;5024064;28;20044;-80
2022/05/07 00:26:39;;;;;;;2.97;2.47;;;;;;;13.62;65.53;102390.00;5058511;28;20035;-80
2022/05/07 00:29:05;;;;;;;2.85;2.17;;;;;;;13.64;65.69;102382.03;5052524;28;20036;-80
2022/05/07 00:31:30;;;;;;;4.72;2.40;;;;;;;13.66;65.91;102382.88;5059996;28;20056;-80
2022/05/07 00:33:55;;;;;;;5.65;2.90;;;;;;;13.65;66.47;102381.16;5077986;28;20298;-80
2022/05/07 00:36:21;;;;;;;5.28;2.90;;;;;;;13.66;66.11;102376.72;5059579;28;20074;-80
2022/05/07 00:38:46;;;;;;;6.70;3.42;;;;;;;13.68;66.40;102377.56;5078379;28;20046;-80
2022/05/07 00:41:14;;;;;;;3.30;3.00;;;;;;;13.68;66.22;102385.44;5059662;28;20076;-80
2022/05/07 00:43:41;;;;;;;6.72;3.20;;;;;;;13.68;67.05;102374.91;5077900;28;20048;-80
2022/05/07 00:46:07;;;;;;;4.03;3.17;;;;;;;13.69;67.63;102388.03;5077786;28;20104;-80
2022/05/07 00:48:33;;;;;;;5.47;3.28;;;;;;;13.70;67.68;102388.91;5077291;28;20050;-80
2022/05/07 00:53:45;;;;;;;5.15;3.70;;;;;;;13.72;67.42;102390.59;5071009;28;20059;-80
2022/05/07 00:56:11;;;;;;;4.38;3.58;;;;;;;13.71;67.87;102383.59;5059309;28;20062;-80
2022/05/07 00:58:38;;;;;;;5.32;3.55;;;;;;;13.69;68.20;102381.91;5055928;28;20329;-80
2022/05/07 01:01:03;;;;;;;6.63;3.70;;;;;;;13.69;67.99;102385.41;5057208;28;20078;-80
2022/05/07 01:03:29;;;;;;;9.95;3.92;;;;;;;13.68;67.94;102380.19;5041768;28;20104;-80
2022/05/07 01:05:54;;;;;;;6.10;4.30;;;;;;;13.65;68.42;102383.78;5044952;28;20320;-80
2022/05/07 01:08:20;;;;;;;7.93;3.83;;;;;;;13.64;68.32;102376.78;5056551;28;20037;-80
2022/05/07 01:10:47;;;;;;;7.93;4.07;;;;;;;13.64;68.35;102382.03;5057192;28;20057;-80
2022/05/07 01:13:12;;;;;;;5.78;3.80;;;;;;;13.64;68.38;102376.78;5055969;28;20045;-80
2022/05/07 01:15:49;;;;;;;11.65;4.68;;;;;;;13.61;68.72;102377.75;5055574;28;20047;-80
2022/05/07 01:18:15;;;;;;;7.93;4.55;;;;;;;13.60;68.88;102377.78;5057063;28;20037;-80
2022/05/07 01:20:41;;;;;;;9.05;4.60;;;;;;;13.58;68.99;102374.34;5042604;28;20336;-80
2022/05/07 01:23:08;;;;;;;7.75;4.63;;;;;;;13.58;69.37;102376.97;5055549;28;20036;-80
2022/05/07 01:25:34;;;;;;;7.18;4.45;;;;;;;13.56;69.65;102381.41;5056774;28;20041;-80
2022/05/07 01:27:59;;;;;;;7.75;4.70;;;;;;;13.54;69.80;102376.19;5056399;28;20138;-80
2022/05/07 01:30:25;;;;;;;7.03;4.40;;;;;;;13.54;69.60;102373.56;5044093;28;20092;-80
2022/05/07 01:32:51;;;;;;;9.77;5.18;;;;;;;13.53;69.91;102376.22;5055706;28;20048;-80
2022/05/07 01:35:17;;;;;;;9.98;5.75;;;;;;;13.51;70.47;102373.63;5056844;28;20025;-80
2022/05/07 01:37:42;;;;;;;13.00;5.20;;;;;;;13.50;70.52;102373.69;5046535;28;20120;-80
2022/05/07 01:40:08;;;;;;;9.63;5.25;;;;;;;13.48;70.85;102365.84;5035851;28;20040;-80
2022/05/07 01:42:33;;;;;;;9.23;5.65;;;;;;;13.48;71.13;102359.69;5053976;28;20040;-80
2022/05/07 01:44:59;;;;;;;12.00;5.95;;;;;;;13.44;71.17;102365.06;5055925;28;20083;-80
2022/05/07 01:50:09;;;;;;;8.18;5.75;;;;;;;13.46;71.19;102354.47;5056501;28;20043;-80
2022/05/07 01:52:34;;;;;;;9.00;5.55;;;;;;;13.46;71.51;102370.25;5038235;28;20301;-80
2022/05/07 01:54:59;;;;;;;13.50;6.30;;;;;;;13.46;71.42;102357.09;5040497;28;20041;-80
2022/05/07 01:57:25;;;;;;;12.88;5.97;;;;;;;13.45;71.59;102363.28;5056722;28;20098;-80
2022/05/07 01:59:50;;;;;;;15.35;6.05;;;;;;;13.45;71.90;102363.28;5050087;28;20047;-80
2022/05/07 02:02:16;;;;;;;9.70;6.13;;;;;;;13.43;71.75;102357.22;5056754;28;20062;-80
2022/05/07 02:04:41;;;;;;;11.55;6.32;;;;;;;13.42;72.40;102356.38;5051068;28;20044;-80
2022/05/07 02:07:07;;;;;;;16.63;7.05;;;;;;;13.43;72.07;102350.19;5048045;28;20142;-80
2022/05/07 02:09:33;;;;;;;12.32;6.28;;;;;;;13.42;72.11;102355.47;5040598;28;20217;-80
2022/05/07 02:11:58;;;;;;;11.77;6.00;;;;;;;13.42;72.20;102351.09;5051977;28;20071;-80
2022/05/07 02:14:24;;;;;;;11.90;6.40;;;;;;;13.42;71.60;102350.22;5073150;28;20369;-80
2022/05/07 02:16:49;;;;;;;12.10;6.40;;;;;;;13.43;71.52;102342.28;5052431;28;20033;-80
2022/05/07 02:19:15;;;;;;;9.02;6.10;;;;;;;13.43;71.75;102352.81;5058103;28;20099;-80
2022/05/07 02:21:40;;;;;;;11.95;6.35;;;;;;;13.43;71.73;102342.28;5076390;28;20048;-80
2022/05/07 02:24:05;;;;;;;12.07;6.50;;;;;;;13.43;71.94;102351.94;5040198;28;20271;-80
2022/05/07 02:26:31;;;;;;;12.07;6.40;;;;;;;13.42;71.94;102351.09;5058143;28;20040;-80
2022/05/07 02:28:56;;;;;;;11.35;6.88;;;;;;;13.43;72.16;102354.59;5029656;28;20115;-80
2022/05/07 02:31:21;;;;;;;12.52;6.78;;;;;;;13.42;72.17;102356.38;5067621;28;20090;-80
2022/05/07 02:33:47;;;;;;;10.27;5.78;;;;;;;13.41;71.87;102346.72;5058136;28;20044;-80
2022/05/07 02:36:13;;;;;;;10.88;6.72;;;;;;;13.41;71.70;102348.50;5057309;28;20044;-80
2022/05/07 02:38:39;;;;;;;12.48;6.20;;;;;;;13.39;71.88;102356.44;5032979;28;20297;-80
2022/05/07 02:43:49;;;;;;;10.35;6.30;;;;;;;13.40;71.56;102358.16;5043399;28;20107;-80
2022/05/07 02:46:14;;;;;;;10.98;6.18;;;;;;;13.39;71.81;102366.97;5074278;28;20056;-80
2022/05/07 02:48:44;;;;;;;10.55;6.75;;;;;;;13.40;71.62;102362.56;5041112;28;20340;-80
2022/05/07 02:51:09;;;;;;;11.65;6.47;;;;;;;13.39;71.72;102363.47;5042022;28;20191;-80
2022/05/07 02:53:35;;;;;;;13.50;7.70;;;;;;;13.38;71.61;102369.63;5075105;28;20090;-80
2022/05/07 02:56:00;;;;;;;16.15;6.75;;;;;;;13.38;71.83;102364.38;5057776;28;20074;-80
2022/05/07 02:58:26;;;;;;;12.15;6.53;;;;;;;13.37;71.71;102371.41;5067166;28;20252;-80
2022/05/07 03:00:52;;;;;;;15.32;7.20;;;;;;;13.36;71.80;102368.81;5058063;28;20110;-80
2022/05/07 03:03:18;;;;;;;11.60;7.55;;;;;;;13.36;71.77;102368.81;5052801;28;20110;-80
2022/05/07 03:05:43;;;;;;;13.48;8.27;;;;;;;13.35;72.27;102369.72;5052490;28;20037;-80
2022/05/07 03:08:09;;;;;;;12.50;8.38;;;;;;;13.35;72.47;102365.34;5059122;28;20336;-80
2022/05/07 03:10:34;;;;;;;16.50;8.48;;;;;;;13.34;73.26;102368.00;5034234;28;20210;-80
2022/05/07 03:12:59;;;;;;;16.23;8.13;;;;;;;13.32;73.49;102365.41;5057998;28;20055;-80
2022/05/07 03:15:25;;;;;;;15.82;8.80;;;;;;;13.30;73.51;102361.94;5055631;28;20071;-80
2022/05/07 03:17:50;;;;;;;16.70;8.73;;;;;;;13.28;73.91;102369.00;5049626;28;20135;-80
2022/05/07 03:20:17;;;;;;;14.65;8.82;;;;;;;13.27;73.85;102364.63;5063378;28;20038;-80
2022/05/07 03:22:43;;;;;;;14.55;8.63;;;;;;;13.28;73.63;102368.13;5062129;28;20062;-80
2022/05/07 03:25:09;;;;;;;14.52;8.35;;;;;;;13.27;73.40;102369.91;5061313;28;20060;-80
2022/05/07 03:27:34;;;;;;;16.10;8.20;;;;;;;13.26;73.62;102365.53;5078728;28;20089;-80
2022/05/07 03:30:00;;;;;;;15.80;8.57;;;;;;;13.28;73.42;102366.38;5044573;28;20071;-80
2022/05/07 03:32:25;;;;;;;14.32;8.13;;;;;;;13.26;73.61;102362.91;5079330;28;20047;-80
2022/05/07 03:34:50;;;;;;;19.45;8.70;;;;;;;13.27;73.55;102367.28;5061291;28;20025;-80
2022/05/07 03:37:16;;;;;;;16.00;8.32;;;;;;;13.25;74.05;102369.94;5078296;28;20182;-80
2022/05/07 03:39:41;;;;;;;14.40;8.75;;;;;;;13.24;74.13;102368.22;5047422;28;20255;-80
2022/05/07 03:42:07;;;;;;;16.23;8.57;;;;;;;13.24;74.29;102364.72;5060770;28;20103;-80
2022/05/07 03:44:33;;;;;;;15.63;8.57;;;;;;;13.23;74.07;102369.13;5060454;28;20054;-80
2022/05/07 03:46:58;;;;;;;17.10;9.13;;;;;;;13.22;74.50;102375.31;5032609;28;20079;-80
2022/05/07 03:49:23;;;;;;;17.88;8.80;;;;;;;13.22;74.37;102374.41;5040901;28;20052;-80
2022/05/07 03:54:33;;;;;;;13.07;8.93;;;;;;;13.21;74.69;102383.22;5046371;28;20048;-80
2022/05/07 03:56:58;;;;;;;18.92;9.43;;;;;;;13.20;74.59;102387.59;5060630;28;20060;-80
2022/05/07 03:59:23;;;;;;;18.73;8.70;;;;;;;13.21;74.49;102389.34;5060682;28;20091;-80
2022/05/07 04:01:49;;;;;;;19.25;9.23;;;;;;;13.20;74.27;102386.75;5070688;28;20055;-80
2022/05/07 04:04:14;;;;;;;17.52;8.85;;;;;;;13.19;74.40;102383.28;5056046;28;20332;-80
2022/05/07 04:06:40;;;;;;;15.82;8.57;;;;;;;13.19;74.53;102387.69;5060155;28;20043;-80
2022/05/07 04:09:05;;;;;;;16.08;9.73;;;;;;;13.18;74.38;102383.31;5023925;28;20332;-80
2022/05/07 04:11:30;;;;;;;17.75;9.05;;;;;;;13.18;74.57;102385.94;5058720;28;20040;-80
2022/05/07 04:13:56;;;;;;;20.50;9.18;;;;;;;13.16;74.86;102391.22;5060846;28;20036;-80
2022/05/07 04:16:21;;;;;;;16.70;8.55;;;;;;;13.14;75.00;102390.41;5059940;28;20292;-80
2022/05/07 04:18:47;;;;;;;17.60;9.32;;;;;;;13.14;74.35;102390.41;5060060;28;20411;-80
2022/05/07 04:21:12;;;;;;;17.00;8.63;;;;;;;13.14;74.03;102393.03;5043665;28;20046;-80
2022/05/07 04:23:38;;;;;;;17.02;8.75;;;;;;;13.14;73.87;102395.69;5060494;28;20039;-80
2022/05/07 04:26:03;;;;;;;14.75;8.80;;;;;;;13.14;74.27;102398.31;5075532;28;20028;-80
2022/05/07 04:28:29;;;;;;;21.88;9.95;;;;;;;13.14;74.65;102403.56;5076550;28;20044;-80
2022/05/07 04:30:54;;;;;;;22.50;9.70;;;;;;;13.12;74.64;102405.38;5043161;28;20036;-80
2022/05/07 04:33:20;;;;;;;19.98;9.95;;;;;;;13.12;75.19;102399.25;5053110;28;20036;-80
2022/05/07 04:35:48;;;;;;;16.73;9.93;;;;;;;13.12;75.02;102407.16;5042735;28;20047;-80
2022/05/07 04:38:13;;;;;;;22.38;10.63;;;;;;;13.12;75.66;102407.16;5060654;28;20032;-80
2022/05/07 04:40:39;;;;;;;19.65;10.57;;;;;;;13.10;75.91;102409.81;5043499;28;20054;-80
2022/05/07 04:43:05;;;;;;;17.38;9.90;;;;;;;13.07;76.51;102396.75;5043227;28;20400;-80
2022/05/07 04:45:30;;;;;;;17.55;10.50;;;;;;;13.08;76.42;102403.75;5050591;28;20247;-80
2022/05/07 04:47:55;;;;;;;21.05;10.90;;;;;;;13.07;76.28;102405.50;5054109;28;20237;-80
2022/05/07 04:50:21;;;;;;;23.92;11.00;;;;;;;13.07;76.45;102402.84;5057342;28;20064;-80
2022/05/07 04:52:46;;;;;;;19.75;10.18;;;;;;;13.07;76.67;102408.13;5056537;28;20515;-80
2022/05/07 04:55:12;;;;;;;19.77;10.63;;;;;;;13.07;76.72;102416.00;5067442;28;20048;-80
2022/05/07 04:57:37;;;;;;;18.45;10.10;;;;;;;13.09;76.78;102409.84;5032368;28;20060;-80
2022/05/07 05:00:05;;;;;;;21.08;10.23;;;;;;;13.07;77.15;102409.91;5056775;28;20240;-80
2022/05/07 05:02:30;;;;;;;20.23;10.85;;;;;;;13.05;77.13;102409.94;5057864;28;20024;-80
2022/05/07 05:04:56;;;;;;;27.65;13.13;;;;;;;13.04;78.04;102410.84;5068664;28;20067;-80
2022/05/07 05:07:21;;;;;;;27.45;11.65;;;;;;;13.04;78.05;102408.22;5051578;28;20342;-80
2022/05/07 05:09:47;;;;;;;22.35;10.38;;;;;;;13.04;78.25;102413.47;5075306;28;20165;-80
2022/05/07 05:12:12;;;;;;;25.58;12.07;;;;;;;13.04;78.26;102416.09;5040494;28;20032;-80
2022/05/07 05:15:20;;;;;;;20.65;11.43;;;;;;;13.05;78.20;102425.72;5047148;28;20037;-80
2022/05/07 05:17:26;;;;;;;21.90;10.90;;;;;;;13.04;78.45;102426.63;5041097;28;20052;-80
2022/05/07 05:19:51;;;;;;;18.88;10.95;;;;;;;13.04;78.62;102426.63;5039781;28;20039;-80
2022/05/07 05:22:17;;;;;;;26.63;12.52;;;;;;;13.05;78.36;102422.22;5073952;28;20036;-80
2022/05/07 05:24:42;;;;;;;26.45;12.60;;;;;;;13.04;78.97;102426.63;5062390;28;20094;-80
2022/05/07 05:27:08;;;;;;;19.35;10.52;;;;;;;13.06;78.49;102423.94;5057215;28;20364;-80
2022/05/07 05:29:33;;;;;;;19.25;9.88;;;;;;;13.05;78.08;102432.75;5075175;28;20038;-80
2022/05/07 05:31:59;;;;;;;19.67;10.93;;;;;;;13.06;78.33;102427.44;5039953;28;20037;-80
2022/05/07 05:34:25;;;;;;;17.33;11.05;;;;;;;13.07;78.14;102431.78;5074873;28;20267;-80
2022/05/07 05:36:50;;;;;;;24.40;11.07;;;;;;;13.09;78.46;102430.91;5057445;28;20044;-80
2022/05/07 05:39:16;;;;;;;21.20;11.32;;;;;;;13.10;78.42;102430.88;5056064;28;20415;-80
2022/05/07 05:41:44;;;;;;;19.80;10.80;;;;;;;13.10;78.42;102428.25;5020746;28;20063;-80
2022/05/07 05:44:12;;;;;;;16.90;10.18;;;;;;;13.12;78.23;102434.31;5036579;28;20052;-80
2022/05/07 05:46:37;;;;;;;18.67;9.60;;;;;;;13.13;77.57;102435.16;5039143;28;20029;-80
2022/05/07 05:49:03;;;;;;;19.42;9.88;;;;;;;13.12;77.30;102431.69;5078526;28;20040;-80
2022/05/07 05:51:28;;;;;;;18.80;9.75;;;;;;;13.14;77.04;102440.41;5095126;28;20064;-80
2022/05/07 05:53:54;;;;;;;16.55;10.38;;;;;;;13.16;77.05;102438.59;5044305;28;20044;-80
2022/05/07 05:56:19;;;;;;;15.05;9.82;;;;;;;13.17;76.70;102440.31;5057009;28;20048;-80
2022/05/07 05:58:44;;;;;;;21.30;11.50;;;;;;;13.18;76.80;102442.03;5056698;28;20052;-80
2022/05/07 06:01:11;;;;;;;18.88;10.70;;;;;;;13.19;76.81;102445.56;5074665;28;20093;-80
2022/05/07 06:03:36;;;;;;;16.25;10.80;;;;;;;13.20;76.91;102442.84;5045788;28;20067;-80
2022/05/07 06:06:02;;;;;;;23.63;11.38;;;;;;;13.21;77.23;102438.47;5055407;28;20045;-80
2022/05/07 06:08:27;;;;;;;18.10;10.93;;;;;;;13.21;77.29;102439.34;5065008;28;20037;-80
2022/05/07 06:10:55;;;;;;;23.50;12.00;;;;;;;13.23;77.45;102440.16;5053750;28;20108;-80
2022/05/07 06:13:21;;;;;;;17.80;10.70;;;;;;;13.24;77.32;102438.38;5040528;28;20048;-80
2022/05/07 06:15:51;;;;;;;24.77;11.75;;;;;;;13.25;77.22;102443.59;5057143;28;20758;-80
2022/05/07 06:18:19;;;;;;;28.08;10.88;;;;;;;13.25;77.65;102454.13;5056623;28;20374;-80
2022/05/07 06:20:45;;;;;;;16.73;9.90;;;;;;;13.26;76.68;102449.72;5057617;28;20040;-80
2022/05/07 06:23:10;;;;;;;21.70;10.95;;;;;;;13.27;76.27;102459.34;5074746;28;20020;-80
2022/05/07 06:28:22;;;;;;;20.58;12.15;;;;;;;13.29;77.57;102451.44;5049035;28;20068;-80
2022/05/07 06:30:48;;;;;;;16.65;11.35;;;;;;;13.30;77.11;102455.75;5037836;28;20032;-80
2022/05/07 06:33:14;;;;;;;21.90;12.70;;;;;;;13.31;77.79;102452.28;5061387;28;20331;-80
2022/05/07 06:35:39;;;;;;;19.00;11.02;;;;;;;13.33;78.42;102458.34;5048037;28;20086;-80
2022/05/07 06:38:05;;;;;;;27.17;12.73;;;;;;;13.35;78.87;102453.91;5056457;28;20059;-80
2022/05/07 06:40:30;;;;;;;28.73;13.52;;;;;;;13.36;78.51;102453.88;5073396;28;20040;-80
2022/05/07 06:42:56;;;;;;;30.65;13.38;;;;;;;13.39;79.71;102464.34;5056548;28;20035;-80
2022/05/07 06:45:21;;;;;;;20.70;12.65;;;;;;;13.41;79.88;102459.03;5057702;28;20041;-80
2022/05/07 06:47:46;;;;;;;29.08;12.73;;;;;;;13.44;79.45;102453.66;5069449;28;20206;-80
2022/05/07 06:50:12;;;;;;;25.02;13.35;;;;;;;13.49;79.74;102461.44;5056925;28;20045;-80
2022/05/07 06:52:45;;;;;;;22.13;11.98;;;;;;;13.53;79.70;102463.09;5056876;28;20029;-80
2022/05/07 06:55:18;;;;;;;14.98;9.85;;;;;;;13.56;79.29;102465.66;5057516;28;20047;-80
2022/05/07 06:57:44;;;;;;;20.83;11.38;;;;;;;13.58;79.29;102462.06;5070683;28;20310;-80
2022/05/07 07:00:13;;;;;;;29.77;11.73;;;;;;;13.61;79.68;102461.13;5071696;28;20053;-80
2022/05/07 07:02:40;;;;;;;14.38;9.77;;;;;;;13.64;79.27;102463.66;5073661;28;20340;-80
2022/05/07 07:05:06;;;;;;;18.45;10.68;;;;;;;13.67;79.64;102467.97;5071465;28;20044;-80
2022/05/07 07:07:32;;;;;;;25.45;12.90;;;;;;;13.69;80.91;102467.03;5073247;28;20032;-80
2022/05/07 07:09:58;;;;;;;15.20;10.50;;;;;;;13.73;80.63;102475.69;5048274;28;20041;-80
2022/05/07 07:12:24;;;;;;;19.65;11.70;;;;;;;13.74;80.83;102467.75;5076343;28;20348;-80
2022/05/07 07:14:50;;;;;;;21.25;11.85;;;;;;;13.76;80.90;102463.31;5041557;28;20074;-80
2022/05/07 07:17:17;;;;;;;19.83;11.50;;;;;;;13.80;80.89;102467.56;5057455;28;20098;-80
2022/05/07 07:19:43;;;;;;;19.70;11.00;;;;;;;13.82;80.83;102472.81;5073609;28;20197;-80
2022/05/07 07:22:08;;;;;;;19.50;11.02;;;;;;;13.85;80.72;102463.97;5057629;28;20173;-80
2022/05/07 07:24:33;;;;;;;17.08;11.02;;;;;;;13.88;80.20;102463.88;5057149;28;20040;-80
2022/05/07 07:26:59;;;;;;;20.40;10.55;;;;;;;13.90;80.56;102467.31;5057698;28;20045;-80
2022/05/07 07:29:25;;;;;;;17.98;10.32;;;;;;;13.95;80.28;102465.41;5030071;28;20104;-80
2022/05/07 07:31:50;;;;;;;17.75;9.48;;;;;;;14.00;80.14;102466.16;5076114;28;20040;-80
2022/05/07 07:34:16;;;;;;;13.35;9.73;;;;;;;14.05;79.96;102460.75;5066342;28;20032;-80
2022/05/07 07:36:44;;;;;;;13.98;9.07;;;;;;;14.07;80.05;102465.06;5064416;28;20191;-80
2022/05/07 07:39:10;;;;;;;12.40;8.50;;;;;;;14.14;80.00;102465.75;5056657;28;20150;-80
2022/05/07 07:41:35;;;;;;;12.27;8.60;;;;;;;14.19;80.02;102467.34;5074966;28;20036;-80
2022/05/07 07:44:01;;;;;;;11.20;7.97;;;;;;;14.24;79.04;102466.34;5047511;28;20235;-80
2022/05/07 07:49:10;;;;;;;11.60;7.50;;;;;;;14.32;78.38;102469.63;5049924;28;20151;-80
2022/05/07 07:51:36;;;;;;;13.95;8.15;;;;;;;14.35;78.48;102466.88;5063028;28;20115;-80
2022/05/07 07:54:02;;;;;;;15.32;9.07;;;;;;;14.39;78.31;102473.78;5050662;28;20040;-80
2022/05/07 07:56:27;;;;;;;14.30;9.13;;;;;;;14.41;78.13;102474.59;5075175;28;20044;-80
2022/05/07 07:58:53;;;;;;;11.52;8.18;;;;;;;14.45;78.20;102470.09;5075749;28;20056;-80
2022/05/07 08:01:18;;;;;;;9.52;8.13;;;;;;;14.50;77.79;102476.09;5066110;28;20036;-82
2022/05/07 08:03:44;;;;;;;17.33;8.95;;;;;;;14.55;77.62;102476.78;5032912;28;20079;-81
2022/05/07 08:06:09;;;;;;;13.13;9.38;;;;;;;14.59;77.30;102483.75;5041978;28;20089;-80
2022/05/07 08:14:02;;;;;;;14.23;8.68;;;;;;;14.74;76.84;102474.47;5048876;28;20047;-80
2022/05/07 08:16:28;;;;;;;15.40;9.43;;;;;;;14.80;76.59;102476.91;5055843;28;20048;-80
2022/05/07 08:18:53;;;;;;;21.70;9.27;;;;;;;14.84;76.41;102485.59;5054262;28;20032;-80
2022/05/07 08:21:19;;;;;;;18.60;9.85;;;;;;;14.86;76.62;102479.38;5052031;28;20033;-80
2022/05/07 08:23:44;;;;;;;16.10;9.90;;;;;;;14.93;76.80;102482.66;5048193;28;20028;-80
2022/05/07 08:26:10;;;;;;;17.65;9.38;;;;;;;14.96;76.57;102480.78;5053730;28;20020;-80
2022/05/07 08:28:37;;;;;;;16.08;9.48;;;;;;;14.99;76.26;102477.19;5058795;28;20283;-80
2022/05/07 08:31:04;;;;;;;17.48;9.48;;;;;;;15.07;76.29;102482.19;5059105;28;20078;-81
2022/05/07 08:33:31;;;;;;;14.32;8.60;;;;;;;15.11;75.59;102479.38;5059262;28;20112;-80
2022/05/07 08:35:57;;;;;;;15.95;8.70;;;;;;;15.20;75.29;102485.28;5027279;28;20036;-80
2022/05/07 08:38:22;;;;;;;13.40;9.38;;;;;;;15.22;75.14;102476.38;5035407;28;20064;-80
2022/05/07 08:40:47;;;;;;;12.70;8.52;;;;;;;15.25;75.25;102484.22;5042117;28;20029;-80
2022/05/07 08:43:15;;;;;;;16.30;9.35;;;;;;;15.31;74.88;102485.78;5058283;28;20279;-80
2022/05/07 08:45:41;;;;;;;13.70;8.98;;;;;;;15.34;74.50;102491.81;5077257;28;20040;-80
2022/05/07 08:48:08;;;;;;;15.70;8.65;;;;;;;15.35;73.55;102495.31;5072476;28;20352;-80
2022/05/07 08:50:33;;;;;;;11.80;7.93;;;;;;;15.40;73.39;102487.25;5076922;28;20151;-80
2022/05/07 08:52:59;;;;;;;13.07;8.30;;;;;;;15.44;72.96;102494.13;5075040;28;20032;-80
2022/05/07 08:55:25;;;;;;;9.50;7.00;;;;;;;15.48;73.25;102493.09;5071203;28;20363;-80
2022/05/07 08:57:52;;;;;;;11.13;7.28;;;;;;;15.52;73.21;102494.75;5042129;28;20052;-81
2022/05/07 09:00:23;;;;;;;15.63;7.85;;;;;;;15.55;72.77;102502.53;5058614;28;20044;-81
2022/05/07 09:02:55;;;;;;;11.57;7.85;;;;;;;15.58;72.18;102502.44;5071365;28;20324;-81
2022/05/07 09:05:30;;;;;;;11.18;7.00;;;;;;;15.61;71.71;102504.09;5058332;28;20355;-81
2022/05/07 09:07:58;;;;;;;10.90;6.50;;;;;;;15.63;71.58;102500.50;5045954;28;20104;-81
2022/05/07 09:10:28;;;;;;;7.95;6.93;;;;;;;15.66;71.78;102499.50;5076142;28;20104;-81
2022/05/07 09:13:15;;;;;;;12.10;7.22;;;;;;;15.70;71.31;102506.44;5050659;28;20059;-81
2022/05/07 09:15:50;;;;;;;11.60;6.90;;;;;;;15.74;70.19;102508.06;5075747;28;20097;-81
2022/05/07 09:18:18;;;;;;;15.13;8.38;;;;;;;15.76;70.83;102497.47;5038693;28;20029;-81
2022/05/07 09:20:43;;;;;;;10.88;6.85;;;;;;;15.78;70.94;102507.03;5050395;28;20336;-81
2022/05/07 09:23:11;;;;;;;9.93;7.28;;;;;;;15.86;71.39;102502.34;5058714;28;20401;-81
2022/05/07 09:25:48;;;;;;;10.05;7.60;;;;;;;15.87;70.81;102506.69;5076002;28;20044;-81
2022/05/07 09:28:25;;;;;;;14.27;7.78;;;;;;;15.95;69.86;102510.84;5076361;28;20021;-81
2022/05/07 09:30:55;;;;;;;10.63;8.07;;;;;;;15.95;70.13;102511.69;5071495;28;20037;-81
2022/05/07 09:33:31;;;;;;;14.73;8.68;;;;;;;15.96;70.25;102513.44;5076235;28;20032;-81
2022/05/07 09:36:08;;;;;;;14.93;9.30;;;;;;;15.96;70.48;102502.00;5072970;28;20035;-81
2022/05/07 09:38:33;;;;;;;18.58;9.73;;;;;;;15.97;70.66;102512.53;5048222;28;20041;-81
2022/05/07 09:40:58;;;;;;;17.48;9.55;;;;;;;16.01;71.06;102505.31;5057192;28;20033;-81
2022/05/07 09:43:29;;;;;;;11.30;8.15;;;;;;;16.03;70.11;102508.78;5050534;28;20311;-81
2022/05/07 09:45:55;;;;;;;15.13;9.50;;;;;;;16.06;70.15;102508.66;5071153;28;20036;-81
2022/05/07 09:48:21;;;;;;;15.27;9.68;;;;;;;16.06;70.30;102512.19;5071969;28;20064;-81
2022/05/07 09:50:46;;;;;;;12.55;9.20;;;;;;;16.11;69.40;102509.34;5039543;28;20048;-81
2022/05/07 09:58:45;;;;;;;14.75;9.13;;;;;;;16.17;69.87;102518.84;5074435;28;20063;-81
2022/05/07 10:01:22;;;;;;;15.13;10.10;;;;;;;16.18;70.24;102517.94;5071547;28;20029;-81
2022/05/07 10:03:52;;;;;;;12.48;8.75;;;;;;;16.23;69.43;102521.25;5050228;28;20099;-81
2022/05/07 10:06:23;;;;;;;16.17;10.02;;;;;;;16.22;69.20;102519.53;5076003;28;20050;-81
2022/05/07 10:09:17;;;;;;;14.63;10.18;;;;;;;16.21;69.58;102520.44;5075667;28;20028;-81
2022/05/07 10:11:44;;;;;;;13.27;9.48;;;;;;;16.20;69.95;102529.31;5075903;28;20032;-80
2022/05/07 10:14:10;;;;;;;15.68;9.23;;;;;;;16.23;69.61;102523.91;5071105;28;20340;-80
2022/05/07 10:16:35;;;;;;;16.67;10.35;;;;;;;16.25;69.62;102524.72;5057311;28;20059;-80
2022/05/07 10:19:10;;;;;;;18.27;10.73;;;;;;;16.30;69.30;102528.03;5059064;28;20355;-80
2022/05/07 10:21:41;;;;;;;14.43;9.77;;;;;;;16.33;69.66;102519.13;5073887;28;20048;-80
2022/05/07 10:24:08;;;;;;;21.75;10.32;;;;;;;16.36;69.03;102524.31;5075497;28;20120;-80
2022/05/07 10:26:39;;;;;;;18.83;10.23;;;;;;;16.39;69.12;102526.81;5077606;28;20340;-80
2022/05/07 10:29:06;;;;;;;13.88;9.35;;;;;;;16.39;68.94;102525.03;5073298;28;20442;-80
2022/05/07 10:31:44;;;;;;;15.88;10.82;;;;;;;16.41;69.45;102525.84;5075878;28;20040;-80
2022/05/07 10:34:09;;;;;;;20.05;11.13;;;;;;;16.44;69.42;102535.44;5061418;28;20032;-80
2022/05/07 10:36:37;;;;;;;16.90;10.20;;;;;;;16.46;69.72;102529.19;5044166;28;20042;-80
2022/05/07 10:39:07;;;;;;;15.48;11.45;;;;;;;16.50;69.66;102527.28;5075698;28;20247;-80
2022/05/07 10:41:35;;;;;;;17.25;10.70;;;;;;;16.51;69.09;102529.84;5075973;28;20044;-80
2022/05/07 10:44:04;;;;;;;20.60;10.40;;;;;;;16.55;69.48;102521.78;5055095;28;20336;-80
2022/05/07 10:46:42;;;;;;;19.17;11.27;;;;;;;16.56;69.40;102534.09;5054918;28;20033;-80
2022/05/07 10:49:07;;;;;;;17.70;10.77;;;;;;;16.59;69.53;102529.56;5062051;28;20036;-80
2022/05/07 10:51:36;;;;;;;16.42;11.32;;;;;;;16.58;68.74;102532.25;5079319;28;20332;-80
2022/05/07 10:54:03;;;;;;;16.98;11.43;;;;;;;16.56;68.98;102542.91;5061604;28;20305;-80
2022/05/07 10:56:32;;;;;;;16.25;10.00;;;;;;;16.51;68.15;102526.34;5079898;28;20516;-80
2022/05/07 10:58:58;;;;;;;21.13;10.77;;;;;;;16.48;68.20;102532.63;5078997;28;20045;-80
2022/05/07 11:01:25;;;;;;;15.30;10.15;;;;;;;16.47;68.25;102535.31;5068973;28;20433;-80
2022/05/07 11:04:07;;;;;;;12.13;8.93;;;;;;;16.45;68.17;102534.53;5070188;28;20100;-80
2022/05/07 11:06:53;;;;;;;13.73;8.98;;;;;;;16.50;68.64;102537.84;5061068;28;20068;-80
2022/05/07 11:09:24;;;;;;;14.63;8.60;;;;;;;16.52;68.42;102530.72;5078101;28;20056;-80
2022/05/07 11:11:54;;;;;;;11.70;8.40;;;;;;;16.55;67.62;102532.38;5079400;28;20032;-81
2022/05/07 11:14:32;;;;;;;17.02;8.90;;;;;;;16.58;67.51;102524.31;5061407;28;20100;-80
2022/05/07 11:16:58;;;;;;;11.75;9.05;;;;;;;16.61;67.68;102527.72;5075026;28;20095;-80
2022/05/07 11:19:29;;;;;;;12.98;9.95;;;;;;;16.63;67.63;102531.16;5075150;28;20391;-80
2022/05/07 11:21:56;;;;;;;18.98;10.25;;;;;;;16.68;67.09;102526.56;5051465;28;20293;-81
2022/05/07 11:24:25;;;;;;;14.85;10.20;;;;;;;16.73;67.35;102530.78;5074753;28;20045;-80
2022/05/07 11:27:02;;;;;;;18.65;10.25;;;;;;;16.73;66.99;102529.00;5038034;28;20375;-80
2022/05/07 11:29:29;;;;;;;16.20;9.30;;;;;;;16.77;67.43;102532.38;5065941;28;20077;-80
2022/05/07 11:31:54;;;;;;;15.98;10.25;;;;;;;16.81;66.82;102526.06;5065879;28;20116;-81
2022/05/07 11:34:31;;;;;;;13.30;8.70;;;;;;;16.85;66.47;102533.00;5055553;28;20063;-80
2022/05/07 11:37:11;;;;;;;12.55;8.90;;;;;;;16.84;66.55;102526.81;5053002;28;20357;-81
2022/05/07 11:39:59;;;;;;;14.23;8.25;;;;;;;16.88;66.00;102527.53;5059707;28;20016;-81
2022/05/07 11:42:44;;;;;;;9.50;7.23;;;;;;;16.91;65.44;102521.28;5078580;28;20086;-80
2022/05/07 11:45:32;;;;;;;12.48;8.32;;;;;;;16.93;66.26;102527.38;5078193;28;20048;-80
2022/05/07 11:48:13;;;;;;;10.20;7.43;;;;;;;16.96;66.21;102529.91;5078197;28;20047;-80